This is the latest recevied weather packets stored in our database for station/object IR1ZYZ-3. If no packets are shown the sender has not sent any weather packets the latest 10 day(s).
| Time | Temp. | Humidity | Pressure | Rain* | Wind** | Luminosity | Snow |
|---|---|---|---|---|---|---|---|
| 1787657211 | 33.33° C | 46% | 1010.8 hPa | - | - | - | - |
| 1787656006 | 32.78° C | 47% | 1010.9 hPa | - | - | - | - |
| 1787655394 | 33.33° C | 46% | 1010.8 hPa | - | - | - | - |
| 1787654788 | 33.89° C | 45% | 1010.9 hPa | - | - | - | - |
| 1787654181 | 33.89° C | 42% | 1010.7 hPa | - | - | - | - |
| 1787653575 | 33.89° C | 45% | 1010.8 hPa | - | - | - | - |
| 1787652970 | 34.44° C | 47% | 1010.6 hPa | - | - | - | - |
| 1787652366 | 34.44° C | 44% | 1010.6 hPa | - | - | - | - |
| 1787651759 | 32.22° C | 49% | 1010.8 hPa | - | - | - | - |
| 1787651154 | 31.67° C | 52% | 1010.8 hPa | - | - | - | - |
| 1787650549 | 30° C | 60% | 1010.8 hPa | - | - | - | - |
| 1787649949 | 29.44° C | 66% | 1010.9 hPa | - | - | - | - |
| 1787649337 | 27.78° C | 68% | 1010.8 hPa | - | - | - | - |
| 1787648732 | 27.22° C | 71% | 1010.8 hPa | - | - | - | - |
| 1787648126 | 26.67° C | 73% | 1010.8 hPa | - | - | - | - |
| 1787647520 | 26.11° C | 77% | 1010.9 hPa | - | - | - | - |
| 1787646915 | 25.56° C | 85% | 1010.8 hPa | - | - | - | - |
| 1787646310 | 25° C | 88% | 1010.8 hPa | - | - | - | - |
| 1787645706 | 24.44° C | 93% | 1011 hPa | - | - | - | - |
| 1787645101 | 23.89° C | 96% | 1010.9 hPa | - | - | - | - |
| 1787644496 | 23.89° C | 99% | 1010.8 hPa | - | - | - | - |
| 1787643896 | 23.33° C | 10% | - | - | - | - | - |
| 1787643286 | 22.78° C | 10% | - | - | - | - | - |
| 1787642681 | 22.22° C | 10% | - | - | - | - | - |
| 1787642077 | 22.22° C | 10% | - | - | - | - | - |
* Rain since midnight (hover to see other rain measurements)
** Current wind speed in m/s (hover to see current wind gust speed)